Amy C. Mc Allister — WCZ9520 — position and weather

sailwx.info

Track history (hours):
 
Tides and Currents Weather Stations Pressure Air Temp Water Temp Dewpoint Dewpoint Depression Visibility Wind Speed Wind Dir Waves Ship Positions

Amy C. Mc Allister

Owner: MC ALLISTER TOWING & TRANSPORTATION INC, NEW YORK, NY. More information available from US FCC via Universal Licensing System and Coast Guard Vessel Documentation Center.

Last reported at 2017-Jun-26 13:31 UTC. Time now 2017-Jun-26 14:07 UTC.
Position N 40°40' W 074°05'.

; draft 4.9 m.

Type: Towing. MMSI: 366995040.

Date/timePositionNaut miles runAvg speedWind from/ knotsBaromVisibWave heightAir tempDewpointWater temp
2017-Jun-26 13:31N 40°40' W 074°05'0 0.0
2017-Jun-26 13:00N 40°40' W 074°05'0 0.0
2017-Jun-26 12:31N 40°40' W 074°05'0 0.0
2017-Jun-26 12:00N 40°40' W 074°05'0 0.0
2017-Jun-26 11:30N 40°40' W 074°05'0 0.0
2017-Jun-26 11:00N 40°40' W 074°05'0 0.0
2017-Jun-26 10:30N 40°40' W 074°05'0 0.5
2017-Jun-26 10:00N 40°40' W 074°05'3 5.1
2017-Jun-26 09:30N 40°38' W 074°03'2 3.7
2017-Jun-26 09:00N 40°36' W 074°03'1 1.4
2017-Jun-26 08:30N 40°37' W 074°03'4 7.7
2017-Jun-26 08:00N 40°39' W 074°08'2 5.0
2017-Jun-26 07:30N 40°41' W 074°08'1 2.1
2017-Jun-26 07:00N 40°42' W 074°09'2 3.4
2017-Jun-26 06:30N 40°40' W 074°08'2 3.2
2017-Jun-26 06:00N 40°39' W 074°08'4 8.1
2017-Jun-26 05:31N 40°40' W 074°03'1 2.7
2017-Jun-26 05:01N 40°41' W 074°04'0 0.3
2017-Jun-26 04:30N 40°41' W 074°04'2 3.2
2017-Jun-26 04:01N 40°40' W 074°03'2 3.5
2017-Jun-26 03:30N 40°38' W 074°03'4 7.5
2017-Jun-26 03:00N 40°39' W 074°08'1 2.4
2017-Jun-26 02:31N 40°38' W 074°10'0 0.0
2017-Jun-26 02:01N 40°38' W 074°10'0 0.0
2017-Jun-26 01:30N 40°38' W 074°10'2 4.6
2017-Jun-26 01:00N 40°40' W 074°08'0 0.0
2017-Jun-26 00:30N 40°40' W 074°08'0 0.0
2017-Jun-26 00:01N 40°40' W 074°08'0 0.0
2017-Jun-25 23:22N 40°40' W 074°08'0 0.0
2017-Jun-25 23:01N 40°40' W 074°08'0 0.0
2017-Jun-25 22:30N 40°40' W 074°08'0 0.0
2017-Jun-25 22:01N 40°40' W 074°08'0 0.0
2017-Jun-25 21:30N 40°40' W 074°08'0 0.0
2017-Jun-25 21:01N 40°40' W 074°08'0 0.0
2017-Jun-25 20:31N 40°40' W 074°08'2 4.1
2017-Jun-25 20:00N 40°39' W 074°10'6 7.4
2017-Jun-25 19:10N 40°33' W 074°14'1 0.6
2017-Jun-25 16:56N 40°34' W 074°13'4 9.2
2017-Jun-25 16:30N 40°38' W 074°12'1 1.4
2017-Jun-25 15:58N 40°39' W 074°11'3 7.1
2017-Jun-25 15:31N 40°39' W 074°07'3 5.4
2017-Jun-25 15:00N 40°39' W 074°10'2 3.0
2017-Jun-25 14:31N 40°38' W 074°12'1 0.8
2017-Jun-25 13:30N 40°39' W 074°11'3 5.4
2017-Jun-25 13:00N 40°39' W 074°08'3 6.6
2017-Jun-25 12:31N 40°39' W 074°04'0 0.7
2017-Jun-25 12:00N 40°39' W 074°04'4 7.6
2017-Jun-25 11:30N 40°38' W 074°09'1 1.3
2017-Jun-25 11:00N 40°38' W 074°10'0 0.0
2017-Jun-25 10:30N 40°38' W 074°10'0 0.0
2017-Jun-25 10:00N 40°38' W 074°10'0 0.0
2017-Jun-25 09:30N 40°38' W 074°10'0 0.0
2017-Jun-25 09:00N 40°38' W 074°10'0 0.0
2017-Jun-25 08:30N 40°38' W 074°10'0 0.0
2017-Jun-25 08:00N 40°38' W 074°10'0 0.0
2017-Jun-25 07:30N 40°38' W 074°10'0 0.0
2017-Jun-25 07:00N 40°38' W 074°10'0 0.0
2017-Jun-25 06:29N 40°38' W 074°10'0 0.0
2017-Jun-25 06:00N 40°38' W 074°10'0 0.0
2017-Jun-25 05:30N 40°38' W 074°10'0 0.0
2017-Jun-25 05:00N 40°38' W 074°10'0 0.0
2017-Jun-25 04:30N 40°38' W 074°10'0 0.0
2017-Jun-25 04:00N 40°38' W 074°10'0 0.0
2017-Jun-25 03:30N 40°38' W 074°10'0 0.0
2017-Jun-25 03:00N 40°38' W 074°10'0 0.8
2017-Jun-25 02:30N 40°38' W 074°09'1 2.5
2017-Jun-25 02:01N 40°40' W 074°09'0 0.4
2017-Jun-25 01:31N 40°39' W 074°09'1 2.6
2017-Jun-25 01:00N 40°38' W 074°10'0 0.0
2017-Jun-25 00:30N 40°38' W 074°10'0 0.0
2017-Jun-25 00:00N 40°38' W 074°10'0 0.0
2017-Jun-24 23:30N 40°38' W 074°10'0 0.0
2017-Jun-24 23:00N 40°38' W 074°10'0 0.0
2017-Jun-24 22:30N 40°38' W 074°10'0 0.0
2017-Jun-24 22:00N 40°38' W 074°10'0 0.0
2017-Jun-24 21:30N 40°38' W 074°10'0 0.0
2017-Jun-24 21:00N 40°38' W 074°10'0 0.0
2017-Jun-24 20:30N 40°38' W 074°10'0 0.0
2017-Jun-24 20:00N 40°38' W 074°10'0 0.0
2017-Jun-24 19:30N 40°38' W 074°10'0 0.0
2017-Jun-24 19:00N 40°38' W 074°10'0 0.0
2017-Jun-24 18:31N 40°38' W 074°10'1 2.9
2017-Jun-24 18:01N 40°39' W 074°08'2 4.0
2017-Jun-24 17:30N 40°41' W 074°08'2 3.3
2017-Jun-24 17:00N 40°39' W 074°09'1 1.4
2017-Jun-24 16:30N 40°38' W 074°10'0 0.0
2017-Jun-24 16:01N 40°38' W 074°10'0 0.0
2017-Jun-24 15:30N 40°38' W 074°10'0 0.0
2017-Jun-24 15:00N 40°38' W 074°10'0 0.0
2017-Jun-24 14:00N 40°38' W 074°10'0 0.0
2017-Jun-24 13:30N 40°38' W 074°10'0 0.0
2017-Jun-24 13:00N 40°38' W 074°10'0 0.0
2017-Jun-24 12:30N 40°38' W 074°10'0 0.0
2017-Jun-24 12:00N 40°38' W 074°10'0 0.0
2017-Jun-24 11:30N 40°38' W 074°10'0 0.0
2017-Jun-24 11:00N 40°38' W 074°10'2 3.5
2017-Jun-24 10:30N 40°39' W 074°08'1 2.5
2017-Jun-24 10:00N 40°40' W 074°09'1 2.8
2017-Jun-24 09:30N 40°41' W 074°09'0 0.2
2017-Jun-24 09:00N 40°41' W 074°09'2 4.5
2017-Jun-24 08:30N 40°39' W 074°09'1 1.0
2017-Jun-24 08:00N 40°38' W 074°10'0 0.0
2017-Jun-24 07:30N 40°38' W 074°10'0 0.0
2017-Jun-24 07:00N 40°38' W 074°10'0 0.0
2017-Jun-24 06:30N 40°38' W 074°10'0 0.0
2017-Jun-24 06:00N 40°38' W 074°10'0 0.0
2017-Jun-24 05:30N 40°38' W 074°10'0 0.0
2017-Jun-24 05:00N 40°38' W 074°10'0 0.0
2017-Jun-24 04:30N 40°38' W 074°10'0 0.0
2017-Jun-24 04:00N 40°38' W 074°10'0 0.0
2017-Jun-24 03:30N 40°38' W 074°10'0 0.0
2017-Jun-24 03:00N 40°38' W 074°10'0 0.0
2017-Jun-24 02:30N 40°38' W 074°10'1 1.3
2017-Jun-24 02:00N 40°38' W 074°09'2 4.5
2017-Jun-24 01:30N 40°39' W 074°06'2 4.3
2017-Jun-24 01:00N 40°39' W 074°09'1 1.8
2017-Jun-24 00:30N 40°40' W 074°09'0 0.0
2017-Jun-24 00:00N 40°40' W 074°09'2 3.2
2017-Jun-23 23:30N 40°38' W 074°09'4 8.6
2017-Jun-23 23:00N 40°38' W 074°04'3 5.6
2017-Jun-23 22:30N 40°39' W 074°07'2 3.9
2017-Jun-23 22:00N 40°38' W 074°10'0 0.0
2017-Jun-23 21:30N 40°38' W 074°10'0 0.0
2017-Jun-23 20:59N 40°38' W 074°10'0 0.0
2017-Jun-23 20:30N 40°38' W 074°10'0 0.0
2017-Jun-23 20:00N 40°38' W 074°10'0 0.0
2017-Jun-23 19:30N 40°38' W 074°10'0 0.4
2017-Jun-23 19:00N 40°39' W 074°10'2 4.3
2017-Jun-23 18:30N 40°39' W 074°07'2 3.4
2017-Jun-23 18:00N 40°40' W 074°08'2 3.2
2017-Jun-23 17:30N 40°42' W 074°09'2 3.7
2017-Jun-23 17:00N 40°40' W 074°08'2 3.1
2017-Jun-23 16:30N 40°39' W 074°07'3 6.3
2017-Jun-23 16:00N 40°37' W 074°04'1 1.5
2017-Jun-23 15:30N 40°36' W 074°03'0 0.9
2017-Jun-23 15:00N 40°36' W 074°03'0 0.6
2017-Jun-23 14:30N 40°36' W 074°03'4 3.9
2017-Jun-23 13:31N 40°40' W 074°04'0 0.0
2017-Jun-23 13:00N 40°40' W 074°04'0 0.0
2017-Jun-23 12:30N 40°40' W 074°04'2 3.3
2017-Jun-23 12:00N 40°39' W 074°06'2 4.4
2017-Jun-23 11:28N 40°39' W 074°09'1 2.5
2017-Jun-23 11:00N 40°40' W 074°08'0 0.3
2017-Jun-23 10:30N 40°40' W 074°08'0 0.0
2017-Jun-23 10:01N 40°40' W 074°08'1 1.6
2017-Jun-23 09:30N 40°41' W 074°09'2 4.8
2017-Jun-23 09:00N 40°39' W 074°09'2 4.3
2017-Jun-23 08:31N 40°39' W 074°06'2 4.5
2017-Jun-23 08:00N 40°39' W 074°09'3 6.5
2017-Jun-23 07:30N 40°42' W 074°09'0 0.2
2017-Jun-23 07:00N 40°42' W 074°09'1 2.7
2017-Jun-23 06:29N 40°41' W 074°08'2 4.1
2017-Jun-23 06:00N 40°39' W 074°08'1 3.0
2017-Jun-23 05:30N 40°39' W 074°06'0 0.3
2017-Jun-23 05:00N 40°39' W 074°06'0 0.0
2017-Jun-23 04:30N 40°39' W 074°06'0 0.0
2017-Jun-23 04:00N 40°39' W 074°06'0 0.0
2017-Jun-23 03:30N 40°39' W 074°06'0 0.0
2017-Jun-23 03:00N 40°39' W 074°06'0 0.0
2017-Jun-23 02:30N 40°39' W 074°06'0 0.0
2017-Jun-23 02:00N 40°39' W 074°06'0 0.0
2017-Jun-23 01:30N 40°39' W 074°06'0 0.0
2017-Jun-23 01:00N 40°39' W 074°06'0 0.0
2017-Jun-23 00:30N 40°39' W 074°06'0 0.0
2017-Jun-23 00:00N 40°39' W 074°06'0 0.0
2017-Jun-22 23:30N 40°39' W 074°06'0 0.0
2017-Jun-22 23:00N 40°39' W 074°06'0 0.0
2017-Jun-22 22:30N 40°39' W 074°06'0 0.0
2017-Jun-22 22:00N 40°39' W 074°06'0 0.0
2017-Jun-22 21:30N 40°39' W 074°06'0 0.0
2017-Jun-22 21:00N 40°39' W 074°06'0 0.0
2017-Jun-22 20:30N 40°39' W 074°06'0 0.0
2017-Jun-22 20:00N 40°39' W 074°06'0 0.0
2017-Jun-22 19:30N 40°39' W 074°06'0 0.0
2017-Jun-22 19:00N 40°39' W 074°06'0 0.0
2017-Jun-22 18:30N 40°39' W 074°06'0 0.0
2017-Jun-22 18:00N 40°39' W 074°06'0 0.0
2017-Jun-22 17:30N 40°39' W 074°06'0 0.0
2017-Jun-22 17:00N 40°39' W 074°06'0 0.4
2017-Jun-22 16:30N 40°39' W 074°06'0 0.3
2017-Jun-22 16:00N 40°39' W 074°06'2 3.3
2017-Jun-22 15:30N 40°40' W 074°05'0 0.2
2017-Jun-22 15:00N 40°40' W 074°05'3 5.1
2017-Jun-22 14:30N 40°38' W 074°03'4 3.6
2017-Jun-22 13:30N 40°39' W 074°08'1 2.6
2017-Jun-22 13:00N 40°38' W 074°10'0 0.0
2017-Jun-22 12:30N 40°38' W 074°10'0 0.0
2017-Jun-22 12:00N 40°38' W 074°10'0 0.0
2017-Jun-22 11:30N 40°38' W 074°10'0 0.0
2017-Jun-22 11:00N 40°38' W 074°10'1 1.1
2017-Jun-22 10:30N 40°39' W 074°10'1 1.3
2017-Jun-22 10:00N 40°39' W 074°11'3 5.4
2017-Jun-22 09:30N 40°39' W 074°08'3 6.1
2017-Jun-22 09:00N 40°39' W 074°04'1 2.9
2017-Jun-22 08:30N 40°38' W 074°03'3 6.4
2017-Jun-22 08:00N 40°39' W 074°07'2 4.8
2017-Jun-22 07:30N 40°38' W 074°10'0 0.0
2017-Jun-22 07:00N 40°38' W 074°10'0 0.0
2017-Jun-22 06:30N 40°38' W 074°10'0 0.0
2017-Jun-22 06:00N 40°38' W 074°10'0 0.0
2017-Jun-22 05:30N 40°38' W 074°10'1 1.5
2017-Jun-22 05:00N 40°39' W 074°11'3 1.2
2017-Jun-22 02:24N 40°36' W 074°12'3 7.7
2017-Jun-22 02:00N 40°39' W 074°11'2 4.8
2017-Jun-22 01:30N 40°38' W 074°08'0 0.0
2017-Jun-22 01:00N 40°38' W 074°08'0 0.0
2017-Jun-22 00:30N 40°38' W 074°08'0 0.0
2017-Jun-22 00:00N 40°38' W 074°08'1 2.5
2017-Jun-21 23:30N 40°39' W 074°06'2 4.0
2017-Jun-21 23:00N 40°40' W 074°03'1 2.3
2017-Jun-21 22:31N 40°40' W 074°05'0 0.0
2017-Jun-21 22:00N 40°40' W 074°05'0 0.0
2017-Jun-21 21:30N 40°40' W 074°05'1 1.4
2017-Jun-21 21:01N 40°40' W 074°04'3 6.7
2017-Jun-21 20:30N 40°39' W 074°08'1 2.5
2017-Jun-21 20:00N 40°38' W 074°10'0 0.0
2017-Jun-21 19:30N 40°38' W 074°10'0 0.0
2017-Jun-21 19:00N 40°38' W 074°10'0 0.0
2017-Jun-21 18:30N 40°38' W 074°10'0 0.0
2017-Jun-21 18:00N 40°38' W 074°10'0 0.0
2017-Jun-21 17:30N 40°38' W 074°10'0 0.0
2017-Jun-21 17:00N 40°38' W 074°10'0 0.0
2017-Jun-21 16:30N 40°38' W 074°10'0 0.0
2017-Jun-21 16:00N 40°38' W 074°10'0 0.0
2017-Jun-21 15:30N 40°38' W 074°10'0 0.0
2017-Jun-21 15:00N 40°38' W 074°10'0 0.0
2017-Jun-21 14:30N 40°38' W 074°10'4 4.2
2017-Jun-21 13:31N 40°39' W 074°04'3 5.1
2017-Jun-21 13:00N 40°37' W 074°03'0 0.2
2017-Jun-21 12:30N 40°37' W 074°03'0 0.1
2017-Jun-21 12:00N 40°37' W 074°03'0 0.1
2017-Jun-21 11:30N 40°37' W 074°03'0 0.0
2017-Jun-21 11:00N 40°37' W 074°03'1 2.2
2017-Jun-21 10:31N 40°38' W 074°04'0 0.0
2017-Jun-21 10:01N 40°38' W 074°04'0 0.0
2017-Jun-21 09:31N 40°38' W 074°04'0 0.0
2017-Jun-21 09:00N 40°38' W 074°04'0 0.0
2017-Jun-21 08:30N 40°38' W 074°04'0 0.0
2017-Jun-21 08:00N 40°38' W 074°04'1 2.3
2017-Jun-21 07:31N 40°37' W 074°03'0 0.3
2017-Jun-21 07:00N 40°37' W 074°03'0 0.1
2017-Jun-21 06:30N 40°37' W 074°03'0 0.1
2017-Jun-21 06:00N 40°37' W 074°03'0 0.0
2017-Jun-21 05:31N 40°37' W 074°03'1 2.7
2017-Jun-21 05:00N 40°38' W 074°04'0 0.0
2017-Jun-21 04:30N 40°38' W 074°04'0 0.0
2017-Jun-21 04:00N 40°38' W 074°04'0 0.0
2017-Jun-21 03:30N 40°38' W 074°04'0 0.0
2017-Jun-21 03:00N 40°38' W 074°04'0 0.0
2017-Jun-21 02:30N 40°38' W 074°04'0 0.0
2017-Jun-21 02:01N 40°38' W 074°04'0 0.0
2017-Jun-21 01:31N 40°38' W 074°04'0 0.0
2017-Jun-21 01:00N 40°38' W 074°04'1 2.6
2017-Jun-21 00:30N 40°37' W 074°03'0 0.3
2017-Jun-21 00:00N 40°37' W 074°03'0 0.2
2017-Jun-20 23:30N 40°37' W 074°03'0 0.1
2017-Jun-20 23:01N 40°37' W 074°03'2 3.1
2017-Jun-20 22:30N 40°38' W 074°03'1 3.0
2017-Jun-20 22:00N 40°40' W 074°04'0 0.0
2017-Jun-20 21:30N 40°40' W 074°04'0 0.0
2017-Jun-20 21:01N 40°40' W 074°04'0 0.0
2017-Jun-20 20:30N 40°40' W 074°04'0 0.0
2017-Jun-20 20:01N 40°40' W 074°04'0 0.0
2017-Jun-20 19:30N 40°40' W 074°04'0 0.0
2017-Jun-20 19:01N 40°40' W 074°04'0 0.0
2017-Jun-20 18:31N 40°40' W 074°04'0 0.0
2017-Jun-20 18:00N 40°40' W 074°04'0 0.0
2017-Jun-20 17:30N 40°40' W 074°04'3 6.1
2017-Jun-20 17:00N 40°39' W 074°08'2 3.6
2017-Jun-20 16:30N 40°39' W 074°10'3 6.0
2017-Jun-20 16:00N 40°36' W 074°12'3 6.1
2017-Jun-20 15:30N 40°33' W 074°14'4 0.4
2017-Jun-20 06:18N 40°37' W 074°12'1 2.9
2017-Jun-20 06:00N 40°38' W 074°12'0 0.0
2017-Jun-20 05:30N 40°38' W 074°12'0 0.5
2017-Jun-20 04:59N 40°38' W 074°12'0 0.0
2017-Jun-20 04:30N 40°38' W 074°12'0 0.0
2017-Jun-20 04:00N 40°38' W 074°12'0 0.0
2017-Jun-20 03:30N 40°38' W 074°12'1 2.4
2017-Jun-20 03:00N 40°39' W 074°11'3 5.5
2017-Jun-20 02:30N 40°41' W 074°09'0 0.1
2017-Jun-20 02:00N 40°41' W 074°09'0 0.0
2017-Jun-20 01:30N 40°41' W 074°09'0 0.1
2017-Jun-20 01:01N 40°41' W 074°09'0 0.0
2017-Jun-20 00:30N 40°41' W 074°09'0 0.0
2017-Jun-20 00:00N 40°41' W 074°09'0 0.0
2017-Jun-19 23:30N 40°41' W 074°09'0 0.8
2017-Jun-19 23:00N 40°41' W 074°09'0 0.4
2017-Jun-19 22:31N 40°41' W 074°09'0 0.0
2017-Jun-19 22:00N 40°41' W 074°09'0 0.5
2017-Jun-19 21:31N 40°41' W 074°09'1 1.7
2017-Jun-19 21:00N 40°40' W 074°09'1 2.7
2017-Jun-19 20:30N 40°39' W 074°08'2 5.0
2017-Jun-19 20:01N 40°39' W 074°05'3 5.7
2017-Jun-19 19:30N 40°36' W 074°03'2 4.2
2017-Jun-19 19:01N 40°38' W 074°04'4 7.8
2017-Jun-19 18:30N 40°38' W 074°09'3 5.4
2017-Jun-19 18:00N 40°41' W 074°10'0 0.0
2017-Jun-19 17:30N 40°41' W 074°10'0 0.0
2017-Jun-19 17:01N 40°41' W 074°10'0 0.0
2017-Jun-19 16:30N 40°41' W 074°10'0 0.0
2017-Jun-19 16:00N 40°41' W 074°10'0 0.0
2017-Jun-19 15:30N 40°41' W 074°10'0 0.0
2017-Jun-19 15:00N 40°41' W 074°10'0 0.0
2017-Jun-19 14:30N 40°41' W 074°10'0 0.0
2017-Jun-19 13:31N 40°41' W 074°10'0 0.0
2017-Jun-19 13:00N 40°41' W 074°10'0 0.0
2017-Jun-19 12:30N 40°41' W 074°10'0 0.0
2017-Jun-19 12:00N 40°41' W 074°10'0 0.0
2017-Jun-19 11:30N 40°41' W 074°10'0 0.0
2017-Jun-19 11:01N 40°41' W 074°10'0 0.0
2017-Jun-19 10:30N 40°41' W 074°10'0 0.0
2017-Jun-19 10:00N 40°41' W 074°10'0 0.0
2017-Jun-19 09:30N 40°41' W 074°10'2 4.8
2017-Jun-19 09:01N 40°43' W 074°07'0 0.2
2017-Jun-19 08:31N 40°43' W 074°07'0 0.9
2017-Jun-19 08:00N 40°42' W 074°07'2 3.8
2017-Jun-19 07:30N 40°41' W 074°08'2 4.0
2017-Jun-19 07:00N 40°39' W 074°08'3 6.7
2017-Jun-19 06:30N 40°38' W 074°03'2 4.0
2017-Jun-19 06:01N 40°39' W 074°06'3 6.1
2017-Jun-19 05:30N 40°38' W 074°10'0 0.0
2017-Jun-19 05:00N 40°38' W 074°10'0 0.0
2017-Jun-19 04:30N 40°38' W 074°10'0 0.0
2017-Jun-19 04:00N 40°38' W 074°10'1 2.7
2017-Jun-19 03:30N 40°39' W 074°08'1 2.1
2017-Jun-19 03:00N 40°40' W 074°09'0 0.6
2017-Jun-19 02:31N 40°40' W 074°09'2 3.3
2017-Jun-19 01:59N 40°38' W 074°10'0 0.0
2017-Jun-19 01:30N 40°38' W 074°10'0 0.0
2017-Jun-19 01:00N 40°38' W 074°10'0 0.0
2017-Jun-19 00:31N 40°38' W 074°10'0 0.0
2017-Jun-19 00:00N 40°38' W 074°10'0 0.0
2017-Jun-18 23:30N 40°38' W 074°10'0 0.0
2017-Jun-18 23:00N 40°38' W 074°10'5 0.7
2017-Jun-18 16:08N 40°34' W 074°13'1 9.4
2017-Jun-18 15:59N 40°36' W 074°12'3 6.2
2017-Jun-18 15:30N 40°39' W 074°11'1 2.3
2017-Jun-18 15:00N 40°39' W 074°10'0 0.3
2017-Jun-18 14:00N 40°38' W 074°10'0 0.0
2017-Jun-18 13:30N 40°38' W 074°10'0 0.0
2017-Jun-18 13:00N 40°38' W 074°10'0 0.0
2017-Jun-18 12:30N 40°38' W 074°10'0 0.0
2017-Jun-18 12:00N 40°38' W 074°10'0 0.0
2017-Jun-18 11:30N 40°38' W 074°10'0 0.0
2017-Jun-18 11:00N 40°38' W 074°10'0 0.0
2017-Jun-18 10:30N 40°38' W 074°10'0 0.0
2017-Jun-18 10:00N 40°38' W 074°10'0 0.0
2017-Jun-18 09:30N 40°38' W 074°10'0 0.0
2017-Jun-18 09:00N 40°38' W 074°10'0 0.0
2017-Jun-18 08:30N 40°38' W 074°10'0 0.0
2017-Jun-18 08:00N 40°38' W 074°10'0 0.0
2017-Jun-18 07:30N 40°38' W 074°10'0 0.0
2017-Jun-18 07:00N 40°38' W 074°10'0 0.0
2017-Jun-18 06:30N 40°38' W 074°10'0 0.0
2017-Jun-18 06:00N 40°38' W 074°10'0 0.0
2017-Jun-18 05:30N 40°38' W 074°10'0 0.0
2017-Jun-18 05:00N 40°38' W 074°10'0 0.0
2017-Jun-18 04:30N 40°38' W 074°10'0 0.0
2017-Jun-18 04:00N 40°38' W 074°10'0 0.0
2017-Jun-18 03:30N 40°38' W 074°10'0 0.0
2017-Jun-18 03:00N 40°38' W 074°10'0 0.0
2017-Jun-18 02:30N 40°38' W 074°10'0 0.0
2017-Jun-18 02:00N 40°38' W 074°10'0 0.0
2017-Jun-18 01:30N 40°38' W 074°10'0 0.0
2017-Jun-18 01:01N 40°38' W 074°10'0 0.0
2017-Jun-18 00:30N 40°38' W 074°10'0 0.0
2017-Jun-18 00:00N 40°38' W 074°10'0 0.0
2017-Jun-17 23:30N 40°38' W 074°10'0 0.0
2017-Jun-17 23:00N 40°38' W 074°10'3 5.5
2017-Jun-17 22:30N 40°41' W 074°08'1 2.2
2017-Jun-17 22:00N 40°42' W 074°09'2 4.6
2017-Jun-17 21:30N 40°39' W 074°09'1 2.6
2017-Jun-17 21:00N 40°39' W 074°08'0 0.1
2017-Jun-17 20:31N 40°39' W 074°08'2 4.1
2017-Jun-17 20:00N 40°39' W 074°10'6 9.1
2017-Jun-17 19:20N 40°33' W 074°14'1 1.3
2017-Jun-17 18:32N 40°33' W 074°15'0 2.0
2017-Jun-17 18:27N 40°33' W 074°15'0 0.0
2017-Jun-17 18:00N 40°33' W 074°15'0 0.0
2017-Jun-17 17:29N 40°33' W 074°15'0 0.0
2017-Jun-17 17:00N 40°33' W 074°15'0 0.0
2017-Jun-17 16:30N 40°33' W 074°15'0 0.0
2017-Jun-17 16:00N 40°33' W 074°15'0 0.0
2017-Jun-17 14:49N 40°33' W 074°15'0 0.0
2017-Jun-17 14:23N 40°33' W 074°15'0 0.0
2017-Jun-17 13:30N 40°33' W 074°15'0 0.0
2017-Jun-17 13:00N 40°33' W 074°15'0 0.0
2017-Jun-17 12:30N 40°33' W 074°15'0 0.0
2017-Jun-17 12:00N 40°33' W 074°15'0 0.0
2017-Jun-17 11:30N 40°33' W 074°15'0 0.0
2017-Jun-17 11:00N 40°33' W 074°15'0 0.9
2017-Jun-17 10:28N 40°33' W 074°15'4 4.4
2017-Jun-17 09:40N 40°36' W 074°12'1 4.2
2017-Jun-17 09:29N 40°37' W 074°12'1 2.2
2017-Jun-17 09:00N 40°38' W 074°12'2 3.1
2017-Jun-17 08:30N 40°36' W 074°12'1 1.3
2017-Jun-17 08:00N 40°36' W 074°12'0 0.0
2017-Jun-17 07:28N 40°36' W 074°12'0 0.0
2017-Jun-17 07:00N 40°36' W 074°12'0 0.0
2017-Jun-17 06:30N 40°36' W 074°12'0 0.0
2017-Jun-17 06:00N 40°36' W 074°12'0 0.0
2017-Jun-17 05:30N 40°36' W 074°12'0 0.0
2017-Jun-17 04:59N 40°36' W 074°12'0 0.0
2017-Jun-17 04:29N 40°36' W 074°12'0 0.0
2017-Jun-17 03:59N 40°36' W 074°12'0 0.0
2017-Jun-17 03:29N 40°36' W 074°12'0 0.0
2017-Jun-17 02:59N 40°36' W 074°12'0 0.0
2017-Jun-17 02:28N 40°36' W 074°12'0 0.0
2017-Jun-17 01:59N 40°36' W 074°12'0 0.0
2017-Jun-17 01:30N 40°36' W 074°12'0 0.0
2017-Jun-17 01:00N 40°36' W 074°12'0 0.0
2017-Jun-17 00:30N 40°36' W 074°12'0 0.0
2017-Jun-17 00:00N 40°36' W 074°12'0 0.0
2017-Jun-16 23:30N 40°36' W 074°12'0 0.0
2017-Jun-16 23:00N 40°36' W 074°12'0 0.0
2017-Jun-16 22:30N 40°36' W 074°12'0 0.0
2017-Jun-16 21:59N 40°36' W 074°12'0 0.0
2017-Jun-16 21:31N 40°36' W 074°12'0 0.0
2017-Jun-16 19:39N 40°36' W 074°12'4 0.8
2017-Jun-16 14:59N 40°33' W 074°15'0 0.5
2017-Jun-16 14:30N 40°32' W 074°15'  
Track history (hours):
 
Tides and Currents Weather Stations Pressure Air Temp Water Temp Dewpoint Dewpoint Depression Visibility Wind Speed Wind Dir Waves Ship Positions

Amy C. Mc Allister

Owner: MC ALLISTER TOWING & TRANSPORTATION INC, NEW YORK, NY. More information available from US FCC via Universal Licensing System and Coast Guard Vessel Documentation Center.

Last reported at 2017-Jun-26 13:31 UTC. Time now 2017-Jun-26 14:07 UTC.
Position N 40°40' W 074°05'.

; draft 4.9 m.

Type: Towing. MMSI: 366995040.

Date/timePositionNaut miles runAvg speedWind from/ knotsBaromVisibWave heightAir tempDewpointWater temp
2017-Jun-26 13:31N 40°40' W 074°05'0 0.0
2017-Jun-26 13:00N 40°40' W 074°05'0 0.0
2017-Jun-26 12:31N 40°40' W 074°05'0 0.0
2017-Jun-26 12:00N 40°40' W 074°05'0 0.0
2017-Jun-26 11:30N 40°40' W 074°05'0 0.0
2017-Jun-26 11:00N 40°40' W 074°05'0 0.0
2017-Jun-26 10:30N 40°40' W 074°05'0 0.5
2017-Jun-26 10:00N 40°40' W 074°05'3 5.1
2017-Jun-26 09:30N 40°38' W 074°03'2 3.7
2017-Jun-26 09:00N 40°36' W 074°03'1 1.4
2017-Jun-26 08:30N 40°37' W 074°03'4 7.7
2017-Jun-26 08:00N 40°39' W 074°08'2 5.0
2017-Jun-26 07:30N 40°41' W 074°08'1 2.1
2017-Jun-26 07:00N 40°42' W 074°09'2 3.4
2017-Jun-26 06:30N 40°40' W 074°08'2 3.2
2017-Jun-26 06:00N 40°39' W 074°08'4 8.1
2017-Jun-26 05:31N 40°40' W 074°03'1 2.7
2017-Jun-26 05:01N 40°41' W 074°04'0 0.3
2017-Jun-26 04:30N 40°41' W 074°04'2 3.2
2017-Jun-26 04:01N 40°40' W 074°03'2 3.5
2017-Jun-26 03:30N 40°38' W 074°03'4 7.5
2017-Jun-26 03:00N 40°39' W 074°08'1 2.4
2017-Jun-26 02:31N 40°38' W 074°10'0 0.0
2017-Jun-26 02:01N 40°38' W 074°10'0 0.0
2017-Jun-26 01:30N 40°38' W 074°10'2 4.6
2017-Jun-26 01:00N 40°40' W 074°08'0 0.0
2017-Jun-26 00:30N 40°40' W 074°08'0 0.0
2017-Jun-26 00:01N 40°40' W 074°08'0 0.0
2017-Jun-25 23:22N 40°40' W 074°08'0 0.0
2017-Jun-25 23:01N 40°40' W 074°08'0 0.0
2017-Jun-25 22:30N 40°40' W 074°08'0 0.0
2017-Jun-25 22:01N 40°40' W 074°08'0 0.0
2017-Jun-25 21:30N 40°40' W 074°08'0 0.0
2017-Jun-25 21:01N 40°40' W 074°08'0 0.0
2017-Jun-25 20:31N 40°40' W 074°08'2 4.1
2017-Jun-25 20:00N 40°39' W 074°10'6 7.4
2017-Jun-25 19:10N 40°33' W 074°14'1 0.6
2017-Jun-25 16:56N 40°34' W 074°13'4 9.2
2017-Jun-25 16:30N 40°38' W 074°12'1 1.4
2017-Jun-25 15:58N 40°39' W 074°11'3 7.1
2017-Jun-25 15:31N 40°39' W 074°07'3 5.4
2017-Jun-25 15:00N 40°39' W 074°10'2 3.0
2017-Jun-25 14:31N 40°38' W 074°12'1 0.8
2017-Jun-25 13:30N 40°39' W 074°11'3 5.4
2017-Jun-25 13:00N 40°39' W 074°08'3 6.6
2017-Jun-25 12:31N 40°39' W 074°04'0 0.7
2017-Jun-25 12:00N 40°39' W 074°04'4 7.6
2017-Jun-25 11:30N 40°38' W 074°09'1 1.3
2017-Jun-25 11:00N 40°38' W 074°10'0 0.0
2017-Jun-25 10:30N 40°38' W 074°10'0 0.0
2017-Jun-25 10:00N 40°38' W 074°10'0 0.0
2017-Jun-25 09:30N 40°38' W 074°10'0 0.0
2017-Jun-25 09:00N 40°38' W 074°10'0 0.0
2017-Jun-25 08:30N 40°38' W 074°10'0 0.0
2017-Jun-25 08:00N 40°38' W 074°10'0 0.0
2017-Jun-25 07:30N 40°38' W 074°10'0 0.0
2017-Jun-25 07:00N 40°38' W 074°10'0 0.0
2017-Jun-25 06:29N 40°38' W 074°10'0 0.0
2017-Jun-25 06:00N 40°38' W 074°10'0 0.0
2017-Jun-25 05:30N 40°38' W 074°10'0 0.0
2017-Jun-25 05:00N 40°38' W 074°10'0 0.0
2017-Jun-25 04:30N 40°38' W 074°10'0 0.0
2017-Jun-25 04:00N 40°38' W 074°10'0 0.0
2017-Jun-25 03:30N 40°38' W 074°10'0 0.0
2017-Jun-25 03:00N 40°38' W 074°10'0 0.8
2017-Jun-25 02:30N 40°38' W 074°09'1 2.5
2017-Jun-25 02:01N 40°40' W 074°09'0 0.4
2017-Jun-25 01:31N 40°39' W 074°09'1 2.6
2017-Jun-25 01:00N 40°38' W 074°10'0 0.0
2017-Jun-25 00:30N 40°38' W 074°10'0 0.0
2017-Jun-25 00:00N 40°38' W 074°10'0 0.0
2017-Jun-24 23:30N 40°38' W 074°10'0 0.0
2017-Jun-24 23:00N 40°38' W 074°10'0 0.0
2017-Jun-24 22:30N 40°38' W 074°10'0 0.0
2017-Jun-24 22:00N 40°38' W 074°10'0 0.0
2017-Jun-24 21:30N 40°38' W 074°10'0 0.0
2017-Jun-24 21:00N 40°38' W 074°10'0 0.0
2017-Jun-24 20:30N 40°38' W 074°10'0 0.0
2017-Jun-24 20:00N 40°38' W 074°10'0 0.0
2017-Jun-24 19:30N 40°38' W 074°10'0 0.0
2017-Jun-24 19:00N 40°38' W 074°10'0 0.0
2017-Jun-24 18:31N 40°38' W 074°10'1 2.9
2017-Jun-24 18:01N 40°39' W 074°08'2 4.0
2017-Jun-24 17:30N 40°41' W 074°08'2 3.3
2017-Jun-24 17:00N 40°39' W 074°09'1 1.4
2017-Jun-24 16:30N 40°38' W 074°10'0 0.0
2017-Jun-24 16:01N 40°38' W 074°10'0 0.0
2017-Jun-24 15:30N 40°38' W 074°10'0 0.0
2017-Jun-24 15:00N 40°38' W 074°10'0 0.0
2017-Jun-24 14:00N 40°38' W 074°10'0 0.0
2017-Jun-24 13:30N 40°38' W 074°10'0 0.0
2017-Jun-24 13:00N 40°38' W 074°10'0 0.0
2017-Jun-24 12:30N 40°38' W 074°10'0 0.0
2017-Jun-24 12:00N 40°38' W 074°10'0 0.0
2017-Jun-24 11:30N 40°38' W 074°10'0 0.0
2017-Jun-24 11:00N 40°38' W 074°10'2 3.5
2017-Jun-24 10:30N 40°39' W 074°08'1 2.5
2017-Jun-24 10:00N 40°40' W 074°09'1 2.8
2017-Jun-24 09:30N 40°41' W 074°09'0 0.2
2017-Jun-24 09:00N 40°41' W 074°09'2 4.5
2017-Jun-24 08:30N 40°39' W 074°09'1 1.0
2017-Jun-24 08:00N 40°38' W 074°10'0 0.0
2017-Jun-24 07:30N 40°38' W 074°10'0 0.0
2017-Jun-24 07:00N 40°38' W 074°10'0 0.0
2017-Jun-24 06:30N 40°38' W 074°10'0 0.0
2017-Jun-24 06:00N 40°38' W 074°10'0 0.0
2017-Jun-24 05:30N 40°38' W 074°10'0 0.0
2017-Jun-24 05:00N 40°38' W 074°10'0 0.0
2017-Jun-24 04:30N 40°38' W 074°10'0 0.0
2017-Jun-24 04:00N 40°38' W 074°10'0 0.0
2017-Jun-24 03:30N 40°38' W 074°10'0 0.0
2017-Jun-24 03:00N 40°38' W 074°10'0 0.0
2017-Jun-24 02:30N 40°38' W 074°10'1 1.3
2017-Jun-24 02:00N 40°38' W 074°09'2 4.5
2017-Jun-24 01:30N 40°39' W 074°06'2 4.3
2017-Jun-24 01:00N 40°39' W 074°09'1 1.8
2017-Jun-24 00:30N 40°40' W 074°09'0 0.0
2017-Jun-24 00:00N 40°40' W 074°09'2 3.2
2017-Jun-23 23:30N 40°38' W 074°09'4 8.6
2017-Jun-23 23:00N 40°38' W 074°04'3 5.6
2017-Jun-23 22:30N 40°39' W 074°07'2 3.9
2017-Jun-23 22:00N 40°38' W 074°10'0 0.0
2017-Jun-23 21:30N 40°38' W 074°10'0 0.0
2017-Jun-23 20:59N 40°38' W 074°10'0 0.0
2017-Jun-23 20:30N 40°38' W 074°10'0 0.0
2017-Jun-23 20:00N 40°38' W 074°10'0 0.0
2017-Jun-23 19:30N 40°38' W 074°10'0 0.4
2017-Jun-23 19:00N 40°39' W 074°10'2 4.3
2017-Jun-23 18:30N 40°39' W 074°07'2 3.4
2017-Jun-23 18:00N 40°40' W 074°08'2 3.2
2017-Jun-23 17:30N 40°42' W 074°09'2 3.7
2017-Jun-23 17:00N 40°40' W 074°08'2 3.1
2017-Jun-23 16:30N 40°39' W 074°07'3 6.3
2017-Jun-23 16:00N 40°37' W 074°04'1 1.5
2017-Jun-23 15:30N 40°36' W 074°03'0 0.9
2017-Jun-23 15:00N 40°36' W 074°03'0 0.6
2017-Jun-23 14:30N 40°36' W 074°03'4 3.9
2017-Jun-23 13:31N 40°40' W 074°04'0 0.0
2017-Jun-23 13:00N 40°40' W 074°04'0 0.0
2017-Jun-23 12:30N 40°40' W 074°04'2 3.3
2017-Jun-23 12:00N 40°39' W 074°06'2 4.4
2017-Jun-23 11:28N 40°39' W 074°09'1 2.5
2017-Jun-23 11:00N 40°40' W 074°08'0 0.3
2017-Jun-23 10:30N 40°40' W 074°08'0 0.0
2017-Jun-23 10:01N 40°40' W 074°08'1 1.6
2017-Jun-23 09:30N 40°41' W 074°09'2 4.8
2017-Jun-23 09:00N 40°39' W 074°09'2 4.3
2017-Jun-23 08:31N 40°39' W 074°06'2 4.5
2017-Jun-23 08:00N 40°39' W 074°09'3 6.5
2017-Jun-23 07:30N 40°42' W 074°09'0 0.2
2017-Jun-23 07:00N 40°42' W 074°09'1 2.7
2017-Jun-23 06:29N 40°41' W 074°08'2 4.1
2017-Jun-23 06:00N 40°39' W 074°08'1 3.0
2017-Jun-23 05:30N 40°39' W 074°06'0 0.3
2017-Jun-23 05:00N 40°39' W 074°06'0 0.0
2017-Jun-23 04:30N 40°39' W 074°06'0 0.0
2017-Jun-23 04:00N 40°39' W 074°06'0 0.0
2017-Jun-23 03:30N 40°39' W 074°06'0 0.0
2017-Jun-23 03:00N 40°39' W 074°06'0 0.0
2017-Jun-23 02:30N 40°39' W 074°06'0 0.0
2017-Jun-23 02:00N 40°39' W 074°06'0 0.0
2017-Jun-23 01:30N 40°39' W 074°06'0 0.0
2017-Jun-23 01:00N 40°39' W 074°06'0 0.0
2017-Jun-23 00:30N 40°39' W 074°06'0 0.0
2017-Jun-23 00:00N 40°39' W 074°06'0 0.0
2017-Jun-22 23:30N 40°39' W 074°06'0 0.0
2017-Jun-22 23:00N 40°39' W 074°06'0 0.0
2017-Jun-22 22:30N 40°39' W 074°06'0 0.0
2017-Jun-22 22:00N 40°39' W 074°06'0 0.0
2017-Jun-22 21:30N 40°39' W 074°06'0 0.0
2017-Jun-22 21:00N 40°39' W 074°06'0 0.0
2017-Jun-22 20:30N 40°39' W 074°06'0 0.0
2017-Jun-22 20:00N 40°39' W 074°06'0 0.0
2017-Jun-22 19:30N 40°39' W 074°06'0 0.0
2017-Jun-22 19:00N 40°39' W 074°06'0 0.0
2017-Jun-22 18:30N 40°39' W 074°06'0 0.0
2017-Jun-22 18:00N 40°39' W 074°06'0 0.0
2017-Jun-22 17:30N 40°39' W 074°06'0 0.0
2017-Jun-22 17:00N 40°39' W 074°06'0 0.4
2017-Jun-22 16:30N 40°39' W 074°06'0 0.3
2017-Jun-22 16:00N 40°39' W 074°06'2 3.3
2017-Jun-22 15:30N 40°40' W 074°05'0 0.2
2017-Jun-22 15:00N 40°40' W 074°05'3 5.1
2017-Jun-22 14:30N 40°38' W 074°03'4 3.6
2017-Jun-22 13:30N 40°39' W 074°08'1 2.6
2017-Jun-22 13:00N 40°38' W 074°10'0 0.0
2017-Jun-22 12:30N 40°38' W 074°10'0 0.0
2017-Jun-22 12:00N 40°38' W 074°10'0 0.0
2017-Jun-22 11:30N 40°38' W 074°10'0 0.0
2017-Jun-22 11:00N 40°38' W 074°10'1 1.1
2017-Jun-22 10:30N 40°39' W 074°10'1 1.3
2017-Jun-22 10:00N 40°39' W 074°11'3 5.4
2017-Jun-22 09:30N 40°39' W 074°08'3 6.1
2017-Jun-22 09:00N 40°39' W 074°04'1 2.9
2017-Jun-22 08:30N 40°38' W 074°03'3 6.4
2017-Jun-22 08:00N 40°39' W 074°07'2 4.8
2017-Jun-22 07:30N 40°38' W 074°10'0 0.0
2017-Jun-22 07:00N 40°38' W 074°10'0 0.0
2017-Jun-22 06:30N 40°38' W 074°10'0 0.0
2017-Jun-22 06:00N 40°38' W 074°10'0 0.0
2017-Jun-22 05:30N 40°38' W 074°10'1 1.5
2017-Jun-22 05:00N 40°39' W 074°11'3 1.2
2017-Jun-22 02:24N 40°36' W 074°12'3 7.7
2017-Jun-22 02:00N 40°39' W 074°11'2 4.8
2017-Jun-22 01:30N 40°38' W 074°08'0 0.0
2017-Jun-22 01:00N 40°38' W 074°08'0 0.0
2017-Jun-22 00:30N 40°38' W 074°08'0 0.0
2017-Jun-22 00:00N 40°38' W 074°08'1 2.5
2017-Jun-21 23:30N 40°39' W 074°06'2 4.0
2017-Jun-21 23:00N 40°40' W 074°03'1 2.3
2017-Jun-21 22:31N 40°40' W 074°05'0 0.0
2017-Jun-21 22:00N 40°40' W 074°05'0 0.0
2017-Jun-21 21:30N 40°40' W 074°05'1 1.4
2017-Jun-21 21:01N 40°40' W 074°04'3 6.7
2017-Jun-21 20:30N 40°39' W 074°08'1 2.5
2017-Jun-21 20:00N 40°38' W 074°10'0 0.0
2017-Jun-21 19:30N 40°38' W 074°10'0 0.0
2017-Jun-21 19:00N 40°38' W 074°10'0 0.0
2017-Jun-21 18:30N 40°38' W 074°10'0 0.0
2017-Jun-21 18:00N 40°38' W 074°10'0 0.0
2017-Jun-21 17:30N 40°38' W 074°10'0 0.0
2017-Jun-21 17:00N 40°38' W 074°10'0 0.0
2017-Jun-21 16:30N 40°38' W 074°10'0 0.0
2017-Jun-21 16:00N 40°38' W 074°10'0 0.0
2017-Jun-21 15:30N 40°38' W 074°10'0 0.0
2017-Jun-21 15:00N 40°38' W 074°10'0 0.0
2017-Jun-21 14:30N 40°38' W 074°10'4 4.2
2017-Jun-21 13:31N 40°39' W 074°04'3 5.1
2017-Jun-21 13:00N 40°37' W 074°03'0 0.2
2017-Jun-21 12:30N 40°37' W 074°03'0 0.1
2017-Jun-21 12:00N 40°37' W 074°03'0 0.1
2017-Jun-21 11:30N 40°37' W 074°03'0 0.0
2017-Jun-21 11:00N 40°37' W 074°03'1 2.2
2017-Jun-21 10:31N 40°38' W 074°04'0 0.0
2017-Jun-21 10:01N 40°38' W 074°04'0 0.0
2017-Jun-21 09:31N 40°38' W 074°04'0 0.0
2017-Jun-21 09:00N 40°38' W 074°04'0 0.0
2017-Jun-21 08:30N 40°38' W 074°04'0 0.0
2017-Jun-21 08:00N 40°38' W 074°04'1 2.3
2017-Jun-21 07:31N 40°37' W 074°03'0 0.3
2017-Jun-21 07:00N 40°37' W 074°03'0 0.1
2017-Jun-21 06:30N 40°37' W 074°03'0 0.1
2017-Jun-21 06:00N 40°37' W 074°03'0 0.0
2017-Jun-21 05:31N 40°37' W 074°03'1 2.7
2017-Jun-21 05:00N 40°38' W 074°04'0 0.0
2017-Jun-21 04:30N 40°38' W 074°04'0 0.0
2017-Jun-21 04:00N 40°38' W 074°04'0 0.0
2017-Jun-21 03:30N 40°38' W 074°04'0 0.0
2017-Jun-21 03:00N 40°38' W 074°04'0 0.0
2017-Jun-21 02:30N 40°38' W 074°04'0 0.0
2017-Jun-21 02:01N 40°38' W 074°04'0 0.0
2017-Jun-21 01:31N 40°38' W 074°04'0 0.0
2017-Jun-21 01:00N 40°38' W 074°04'1 2.6
2017-Jun-21 00:30N 40°37' W 074°03'0 0.3
2017-Jun-21 00:00N 40°37' W 074°03'0 0.2
2017-Jun-20 23:30N 40°37' W 074°03'0 0.1
2017-Jun-20 23:01N 40°37' W 074°03'2 3.1
2017-Jun-20 22:30N 40°38' W 074°03'1 3.0
2017-Jun-20 22:00N 40°40' W 074°04'0 0.0
2017-Jun-20 21:30N 40°40' W 074°04'0 0.0
2017-Jun-20 21:01N 40°40' W 074°04'0 0.0
2017-Jun-20 20:30N 40°40' W 074°04'0 0.0
2017-Jun-20 20:01N 40°40' W 074°04'0 0.0
2017-Jun-20 19:30N 40°40' W 074°04'0 0.0
2017-Jun-20 19:01N 40°40' W 074°04'0 0.0
2017-Jun-20 18:31N 40°40' W 074°04'0 0.0
2017-Jun-20 18:00N 40°40' W 074°04'0 0.0
2017-Jun-20 17:30N 40°40' W 074°04'3 6.1
2017-Jun-20 17:00N 40°39' W 074°08'2 3.6
2017-Jun-20 16:30N 40°39' W 074°10'3 6.0
2017-Jun-20 16:00N 40°36' W 074°12'3 6.1
2017-Jun-20 15:30N 40°33' W 074°14'4 0.4
2017-Jun-20 06:18N 40°37' W 074°12'1 2.9
2017-Jun-20 06:00N 40°38' W 074°12'0 0.0
2017-Jun-20 05:30N 40°38' W 074°12'0 0.5
2017-Jun-20 04:59N 40°38' W 074°12'0 0.0
2017-Jun-20 04:30N 40°38' W 074°12'0 0.0
2017-Jun-20 04:00N 40°38' W 074°12'0 0.0
2017-Jun-20 03:30N 40°38' W 074°12'1 2.4
2017-Jun-20 03:00N 40°39' W 074°11'3 5.5
2017-Jun-20 02:30N 40°41' W 074°09'0 0.1
2017-Jun-20 02:00N 40°41' W 074°09'0 0.0
2017-Jun-20 01:30N 40°41' W 074°09'0 0.1
2017-Jun-20 01:01N 40°41' W 074°09'0 0.0
2017-Jun-20 00:30N 40°41' W 074°09'0 0.0
2017-Jun-20 00:00N 40°41' W 074°09'0 0.0
2017-Jun-19 23:30N 40°41' W 074°09'0 0.8
2017-Jun-19 23:00N 40°41' W 074°09'0 0.4
2017-Jun-19 22:31N 40°41' W 074°09'0 0.0
2017-Jun-19 22:00N 40°41' W 074°09'0 0.5
2017-Jun-19 21:31N 40°41' W 074°09'1 1.7
2017-Jun-19 21:00N 40°40' W 074°09'1 2.7
2017-Jun-19 20:30N 40°39' W 074°08'2 5.0
2017-Jun-19 20:01N 40°39' W 074°05'3 5.7
2017-Jun-19 19:30N 40°36' W 074°03'2 4.2
2017-Jun-19 19:01N 40°38' W 074°04'4 7.8
2017-Jun-19 18:30N 40°38' W 074°09'3 5.4
2017-Jun-19 18:00N 40°41' W 074°10'0 0.0
2017-Jun-19 17:30N 40°41' W 074°10'0 0.0
2017-Jun-19 17:01N 40°41' W 074°10'0 0.0
2017-Jun-19 16:30N 40°41' W 074°10'0 0.0
2017-Jun-19 16:00N 40°41' W 074°10'0 0.0
2017-Jun-19 15:30N 40°41' W 074°10'0 0.0
2017-Jun-19 15:00N 40°41' W 074°10'0 0.0
2017-Jun-19 14:30N 40°41' W 074°10'0 0.0
2017-Jun-19 13:31N 40°41' W 074°10'0 0.0
2017-Jun-19 13:00N 40°41' W 074°10'0 0.0
2017-Jun-19 12:30N 40°41' W 074°10'0 0.0
2017-Jun-19 12:00N 40°41' W 074°10'0 0.0
2017-Jun-19 11:30N 40°41' W 074°10'0 0.0
2017-Jun-19 11:01N 40°41' W 074°10'0 0.0
2017-Jun-19 10:30N 40°41' W 074°10'0 0.0
2017-Jun-19 10:00N 40°41' W 074°10'0 0.0
2017-Jun-19 09:30N 40°41' W 074°10'2 4.8
2017-Jun-19 09:01N 40°43' W 074°07'0 0.2
2017-Jun-19 08:31N 40°43' W 074°07'0 0.9
2017-Jun-19 08:00N 40°42' W 074°07'2 3.8
2017-Jun-19 07:30N 40°41' W 074°08'2 4.0
2017-Jun-19 07:00N 40°39' W 074°08'3 6.7
2017-Jun-19 06:30N 40°38' W 074°03'2 4.0
2017-Jun-19 06:01N 40°39' W 074°06'3 6.1
2017-Jun-19 05:30N 40°38' W 074°10'0 0.0
2017-Jun-19 05:00N 40°38' W 074°10'0 0.0
2017-Jun-19 04:30N 40°38' W 074°10'0 0.0
2017-Jun-19 04:00N 40°38' W 074°10'1 2.7
2017-Jun-19 03:30N 40°39' W 074°08'1 2.1
2017-Jun-19 03:00N 40°40' W 074°09'0 0.6
2017-Jun-19 02:31N 40°40' W 074°09'2 3.3
2017-Jun-19 01:59N 40°38' W 074°10'0 0.0
2017-Jun-19 01:30N 40°38' W 074°10'0 0.0
2017-Jun-19 01:00N 40°38' W 074°10'0 0.0
2017-Jun-19 00:31N 40°38' W 074°10'0 0.0
2017-Jun-19 00:00N 40°38' W 074°10'0 0.0
2017-Jun-18 23:30N 40°38' W 074°10'0 0.0
2017-Jun-18 23:00N 40°38' W 074°10'5 0.7
2017-Jun-18 16:08N 40°34' W 074°13'1 9.4
2017-Jun-18 15:59N 40°36' W 074°12'3 6.2
2017-Jun-18 15:30N 40°39' W 074°11'1 2.3
2017-Jun-18 15:00N 40°39' W 074°10'0 0.3
2017-Jun-18 14:00N 40°38' W 074°10'0 0.0
2017-Jun-18 13:30N 40°38' W 074°10'0 0.0
2017-Jun-18 13:00N 40°38' W 074°10'0 0.0
2017-Jun-18 12:30N 40°38' W 074°10'0 0.0
2017-Jun-18 12:00N 40°38' W 074°10'0 0.0
2017-Jun-18 11:30N 40°38' W 074°10'0 0.0
2017-Jun-18 11:00N 40°38' W 074°10'0 0.0
2017-Jun-18 10:30N 40°38' W 074°10'0 0.0
2017-Jun-18 10:00N 40°38' W 074°10'0 0.0
2017-Jun-18 09:30N 40°38' W 074°10'0 0.0
2017-Jun-18 09:00N 40°38' W 074°10'0 0.0
2017-Jun-18 08:30N 40°38' W 074°10'0 0.0
2017-Jun-18 08:00N 40°38' W 074°10'0 0.0
2017-Jun-18 07:30N 40°38' W 074°10'0 0.0
2017-Jun-18 07:00N 40°38' W 074°10'0 0.0
2017-Jun-18 06:30N 40°38' W 074°10'0 0.0
2017-Jun-18 06:00N 40°38' W 074°10'0 0.0
2017-Jun-18 05:30N 40°38' W 074°10'0 0.0
2017-Jun-18 05:00N 40°38' W 074°10'0 0.0
2017-Jun-18 04:30N 40°38' W 074°10'0 0.0
2017-Jun-18 04:00N 40°38' W 074°10'0 0.0
2017-Jun-18 03:30N 40°38' W 074°10'0 0.0
2017-Jun-18 03:00N 40°38' W 074°10'0 0.0
2017-Jun-18 02:30N 40°38' W 074°10'0 0.0
2017-Jun-18 02:00N 40°38' W 074°10'0 0.0
2017-Jun-18 01:30N 40°38' W 074°10'0 0.0
2017-Jun-18 01:01N 40°38' W 074°10'0 0.0
2017-Jun-18 00:30N 40°38' W 074°10'0 0.0
2017-Jun-18 00:00N 40°38' W 074°10'0 0.0
2017-Jun-17 23:30N 40°38' W 074°10'0 0.0
2017-Jun-17 23:00N 40°38' W 074°10'3 5.5
2017-Jun-17 22:30N 40°41' W 074°08'1 2.2
2017-Jun-17 22:00N 40°42' W 074°09'2 4.6
2017-Jun-17 21:30N 40°39' W 074°09'1 2.6
2017-Jun-17 21:00N 40°39' W 074°08'0 0.1
2017-Jun-17 20:31N 40°39' W 074°08'2 4.1
2017-Jun-17 20:00N 40°39' W 074°10'6 9.1
2017-Jun-17 19:20N 40°33' W 074°14'1 1.3
2017-Jun-17 18:32N 40°33' W 074°15'0 2.0
2017-Jun-17 18:27N 40°33' W 074°15'0 0.0
2017-Jun-17 18:00N 40°33' W 074°15'0 0.0
2017-Jun-17 17:29N 40°33' W 074°15'0 0.0
2017-Jun-17 17:00N 40°33' W 074°15'0 0.0
2017-Jun-17 16:30N 40°33' W 074°15'0 0.0
2017-Jun-17 16:00N 40°33' W 074°15'0 0.0
2017-Jun-17 14:49N 40°33' W 074°15'0 0.0
2017-Jun-17 14:23N 40°33' W 074°15'0 0.0
2017-Jun-17 13:30N 40°33' W 074°15'0 0.0
2017-Jun-17 13:00N 40°33' W 074°15'0 0.0
2017-Jun-17 12:30N 40°33' W 074°15'0 0.0
2017-Jun-17 12:00N 40°33' W 074°15'0 0.0
2017-Jun-17 11:30N 40°33' W 074°15'0 0.0
2017-Jun-17 11:00N 40°33' W 074°15'0 0.9
2017-Jun-17 10:28N 40°33' W 074°15'4 4.4
2017-Jun-17 09:40N 40°36' W 074°12'1 4.2
2017-Jun-17 09:29N 40°37' W 074°12'1 2.2
2017-Jun-17 09:00N 40°38' W 074°12'2 3.1
2017-Jun-17 08:30N 40°36' W 074°12'1 1.3
2017-Jun-17 08:00N 40°36' W 074°12'0 0.0
2017-Jun-17 07:28N 40°36' W 074°12'0 0.0
2017-Jun-17 07:00N 40°36' W 074°12'0 0.0
2017-Jun-17 06:30N 40°36' W 074°12'0 0.0
2017-Jun-17 06:00N 40°36' W 074°12'0 0.0
2017-Jun-17 05:30N 40°36' W 074°12'0 0.0
2017-Jun-17 04:59N 40°36' W 074°12'0 0.0
2017-Jun-17 04:29N 40°36' W 074°12'0 0.0
2017-Jun-17 03:59N 40°36' W 074°12'0 0.0
2017-Jun-17 03:29N 40°36' W 074°12'0 0.0
2017-Jun-17 02:59N 40°36' W 074°12'0 0.0
2017-Jun-17 02:28N 40°36' W 074°12'0 0.0
2017-Jun-17 01:59N 40°36' W 074°12'0 0.0
2017-Jun-17 01:30N 40°36' W 074°12'0 0.0
2017-Jun-17 01:00N 40°36' W 074°12'0 0.0
2017-Jun-17 00:30N 40°36' W 074°12'0 0.0
2017-Jun-17 00:00N 40°36' W 074°12'0 0.0
2017-Jun-16 23:30N 40°36' W 074°12'0 0.0
2017-Jun-16 23:00N 40°36' W 074°12'0 0.0
2017-Jun-16 22:30N 40°36' W 074°12'0 0.0
2017-Jun-16 21:59N 40°36' W 074°12'0 0.0
2017-Jun-16 21:31N 40°36' W 074°12'0 0.0
2017-Jun-16 19:39N 40°36' W 074°12'4 0.8
2017-Jun-16 14:59N 40°33' W 074°15'0 0.5
2017-Jun-16 14:30N 40°32' W 074°15'  

Dump ship's entire track history